sensor_id;sensor_type;location;lat;lon;timestamp;P1;durP1;ratioP1;P2;durP2;ratioP2
69588;SDS011;56792;50.644;17.984;2023-03-01T00:01:33;33.60;;;12.70;;
69588;SDS011;56792;50.644;17.984;2023-03-01T00:04:05;28.80;;;12.40;;
69588;SDS011;56792;50.644;17.984;2023-03-01T00:06:37;22.90;;;11.10;;
69588;SDS011;56792;50.644;17.984;2023-03-01T00:09:10;30.00;;;12.30;;
69588;SDS011;56792;50.644;17.984;2023-03-01T00:11:43;28.00;;;12.80;;
69588;SDS011;56792;50.644;17.984;2023-03-01T00:14:15;31.70;;;13.20;;
69588;SDS011;56792;50.644;17.984;2023-03-01T00:16:48;14.60;;;8.60;;
69588;SDS011;56792;50.644;17.984;2023-03-01T00:19:21;26.20;;;12.20;;
69588;SDS011;56792;50.644;17.984;2023-03-01T00:21:53;27.50;;;13.00;;
69588;SDS011;56792;50.644;17.984;2023-03-01T00:24:25;32.40;;;13.80;;
69588;SDS011;56792;50.644;17.984;2023-03-01T00:26:57;29.10;;;14.10;;
69588;SDS011;56792;50.644;17.984;2023-03-01T00:29:30;34.60;;;14.70;;
69588;SDS011;56792;50.644;17.984;2023-03-01T00:32:02;33.90;;;14.40;;
69588;SDS011;56792;50.644;17.984;2023-03-01T00:34:34;29.90;;;13.70;;
69588;SDS011;56792;50.644;17.984;2023-03-01T00:37:07;28.80;;;13.20;;
69588;SDS011;56792;50.644;17.984;2023-03-01T00:39:39;22.00;;;10.60;;
69588;SDS011;56792;50.644;17.984;2023-03-01T00:42:11;20.40;;;9.80;;
69588;SDS011;56792;50.644;17.984;2023-03-01T00:44:46;24.20;;;11.20;;
69588;SDS011;56792;50.644;17.984;2023-03-01T00:47:18;25.70;;;12.60;;
69588;SDS011;56792;50.644;17.984;2023-03-01T00:49:50;24.70;;;11.80;;
69588;SDS011;56792;50.644;17.984;2023-03-01T00:52:22;24.10;;;11.80;;
69588;SDS011;56792;50.644;17.984;2023-03-01T00:54:55;31.20;;;13.00;;
69588;SDS011;56792;50.644;17.984;2023-03-01T00:57:27;33.10;;;14.50;;
69588;SDS011;56792;50.644;17.984;2023-03-01T01:00:00;29.70;;;14.40;;
69588;SDS011;56792;50.644;17.984;2023-03-01T01:02:33;31.40;;;12.50;;
69588;SDS011;56792;50.644;17.984;2023-03-01T01:05:07;30.50;;;16.10;;
69588;SDS011;56792;50.644;17.984;2023-03-01T01:07:39;32.50;;;15.20;;
69588;SDS011;56792;50.644;17.984;2023-03-01T01:10:12;28.40;;;12.80;;
69588;SDS011;56792;50.644;17.984;2023-03-01T01:12:46;27.40;;;13.00;;
69588;SDS011;56792;50.644;17.984;2023-03-01T01:15:19;27.70;;;12.60;;
69588;SDS011;56792;50.644;17.984;2023-03-01T01:17:51;34.00;;;14.90;;
69588;SDS011;56792;50.644;17.984;2023-03-01T01:20:24;26.40;;;13.00;;
69588;SDS011;56792;50.644;17.984;2023-03-01T01:22:56;35.30;;;16.60;;
69588;SDS011;56792;50.644;17.984;2023-03-01T01:25:28;38.50;;;17.40;;
69588;SDS011;56792;50.644;17.984;2023-03-01T01:28:04;34.80;;;14.90;;
69588;SDS011;56792;50.644;17.984;2023-03-01T01:30:36;37.50;;;15.50;;
69588;SDS011;56792;50.644;17.984;2023-03-01T01:33:09;33.60;;;15.70;;
69588;SDS011;56792;50.644;17.984;2023-03-01T01:35:41;30.70;;;14.40;;
69588;SDS011;56792;50.644;17.984;2023-03-01T01:38:14;30.20;;;13.50;;
69588;SDS011;56792;50.644;17.984;2023-03-01T01:40:48;25.20;;;11.00;;
69588;SDS011;56792;50.644;17.984;2023-03-01T01:43:23;20.10;;;10.40;;
69588;SDS011;56792;50.644;17.984;2023-03-01T01:45:58;21.50;;;10.00;;
69588;SDS011;56792;50.644;17.984;2023-03-01T01:48:37;25.70;;;11.80;;
69588;SDS011;56792;50.644;17.984;2023-03-01T01:51:15;24.90;;;12.20;;
69588;SDS011;56792;50.644;17.984;2023-03-01T01:53:57;25.20;;;12.30;;
69588;SDS011;56792;50.644;17.984;2023-03-01T01:56:32;27.10;;;12.10;;
69588;SDS011;56792;50.644;17.984;2023-03-01T01:59:07;32.30;;;12.80;;
69588;SDS011;56792;50.644;17.984;2023-03-01T02:01:40;29.40;;;13.30;;
69588;SDS011;56792;50.644;17.984;2023-03-01T02:04:12;28.80;;;12.60;;
69588;SDS011;56792;50.644;17.984;2023-03-01T02:06:48;26.00;;;12.60;;
69588;SDS011;56792;50.644;17.984;2023-03-01T02:09:25;23.70;;;11.90;;
69588;SDS011;56792;50.644;17.984;2023-03-01T02:12:00;27.20;;;13.90;;
69588;SDS011;56792;50.644;17.984;2023-03-01T02:14:33;30.20;;;12.40;;
69588;SDS011;56792;50.644;17.984;2023-03-01T02:17:06;34.00;;;14.70;;
69588;SDS011;56792;50.644;17.984;2023-03-01T02:19:58;28.60;;;14.10;;
69588;SDS011;56792;50.644;17.984;2023-03-01T02:22:44;25.50;;;12.50;;
69588;SDS011;56792;50.644;17.984;2023-03-01T02:25:37;35.40;;;15.60;;
69588;SDS011;56792;50.644;17.984;2023-03-01T02:28:35;35.90;;;14.90;;
69588;SDS011;56792;50.644;17.984;2023-03-01T02:31:11;35.00;;;13.80;;
69588;SDS011;56792;50.644;17.984;2023-03-01T02:34:05;33.10;;;14.10;;
69588;SDS011;56792;50.644;17.984;2023-03-01T02:36:43;30.70;;;14.70;;
69588;SDS011;56792;50.644;17.984;2023-03-01T02:39:19;33.80;;;14.90;;
69588;SDS011;56792;50.644;17.984;2023-03-01T02:41:57;35.90;;;14.40;;
69588;SDS011;56792;50.644;17.984;2023-03-01T02:44:29;30.10;;;13.80;;
69588;SDS011;56792;50.644;17.984;2023-03-01T02:47:03;25.00;;;11.80;;
69588;SDS011;56792;50.644;17.984;2023-03-01T02:49:37;22.20;;;10.50;;
69588;SDS011;56792;50.644;17.984;2023-03-01T02:52:41;21.40;;;10.80;;
69588;SDS011;56792;50.644;17.984;2023-03-01T02:55:22;29.80;;;11.60;;
69588;SDS011;56792;50.644;17.984;2023-03-01T02:57:55;31.40;;;11.70;;
69588;SDS011;56792;50.644;17.984;2023-03-01T03:00:33;28.30;;;12.50;;
69588;SDS011;56792;50.644;17.984;2023-03-01T03:03:09;24.90;;;11.60;;
69588;SDS011;56792;50.644;17.984;2023-03-01T03:05:43;30.50;;;13.20;;
69588;SDS011;56792;50.644;17.984;2023-03-01T03:08:16;33.00;;;14.40;;
69588;SDS011;56792;50.644;17.984;2023-03-01T03:10:53;27.30;;;12.20;;
69588;SDS011;56792;50.644;17.984;2023-03-01T03:13:25;32.00;;;13.50;;
69588;SDS011;56792;50.644;17.984;2023-03-01T03:15:58;28.10;;;11.90;;
69588;SDS011;56792;50.644;17.984;2023-03-01T03:18:32;30.80;;;13.60;;
69588;SDS011;56792;50.644;17.984;2023-03-01T03:21:04;40.00;;;14.70;;
69588;SDS011;56792;50.644;17.984;2023-03-01T03:23:40;16.90;;;8.00;;
69588;SDS011;56792;50.644;17.984;2023-03-01T03:26:12;25.30;;;10.80;;
69588;SDS011;56792;50.644;17.984;2023-03-01T03:28:45;33.60;;;15.00;;
69588;SDS011;56792;50.644;17.984;2023-03-01T03:31:17;32.00;;;13.10;;
69588;SDS011;56792;50.644;17.984;2023-03-01T03:33:50;35.40;;;14.40;;
69588;SDS011;56792;50.644;17.984;2023-03-01T03:36:23;40.30;;;15.70;;
69588;SDS011;56792;50.644;17.984;2023-03-01T03:38:56;40.40;;;15.20;;
69588;SDS011;56792;50.644;17.984;2023-03-01T03:41:28;45.40;;;17.50;;
69588;SDS011;56792;50.644;17.984;2023-03-01T03:44:01;34.90;;;13.90;;
69588;SDS011;56792;50.644;17.984;2023-03-01T03:46:33;32.70;;;14.80;;
69588;SDS011;56792;50.644;17.984;2023-03-01T03:49:05;29.10;;;13.60;;
69588;SDS011;56792;50.644;17.984;2023-03-01T03:51:37;23.80;;;10.50;;
69588;SDS011;56792;50.644;17.984;2023-03-01T03:54:10;25.70;;;9.90;;
69588;SDS011;56792;50.644;17.984;2023-03-01T03:56:42;20.10;;;9.90;;
69588;SDS011;56792;50.644;17.984;2023-03-01T03:59:14;24.60;;;11.20;;
69588;SDS011;56792;50.644;17.984;2023-03-01T04:01:46;30.50;;;11.70;;
69588;SDS011;56792;50.644;17.984;2023-03-01T04:04:19;30.40;;;11.30;;
69588;SDS011;56792;50.644;17.984;2023-03-01T04:06:51;29.60;;;12.40;;
69588;SDS011;56792;50.644;17.984;2023-03-01T04:09:23;32.30;;;13.30;;
69588;SDS011;56792;50.644;17.984;2023-03-01T04:11:56;30.20;;;13.70;;
69588;SDS011;56792;50.644;17.984;2023-03-01T04:14:28;29.20;;;12.70;;
69588;SDS011;56792;50.644;17.984;2023-03-01T04:17:00;34.50;;;14.30;;
69588;SDS011;56792;50.644;17.984;2023-03-01T04:19:34;34.90;;;14.50;;
69588;SDS011;56792;50.644;17.984;2023-03-01T04:22:06;37.90;;;14.70;;
69588;SDS011;56792;50.644;17.984;2023-03-01T04:24:39;45.30;;;15.50;;
69588;SDS011;56792;50.644;17.984;2023-03-01T04:27:12;29.40;;;12.40;;
69588;SDS011;56792;50.644;17.984;2023-03-01T04:29:44;39.00;;;16.00;;
69588;SDS011;56792;50.644;17.984;2023-03-01T04:32:17;39.20;;;15.50;;
69588;SDS011;56792;50.644;17.984;2023-03-01T04:34:49;48.80;;;17.30;;
69588;SDS011;56792;50.644;17.984;2023-03-01T04:37:23;43.60;;;17.00;;
69588;SDS011;56792;50.644;17.984;2023-03-01T04:39:55;41.50;;;17.80;;
69588;SDS011;56792;50.644;17.984;2023-03-01T04:42:27;35.10;;;15.40;;
69588;SDS011;56792;50.644;17.984;2023-03-01T04:44:59;42.10;;;16.40;;
69588;SDS011;56792;50.644;17.984;2023-03-01T04:47:32;41.00;;;16.20;;
69588;SDS011;56792;50.644;17.984;2023-03-01T04:50:09;35.70;;;14.60;;
69588;SDS011;56792;50.644;17.984;2023-03-01T04:52:43;36.90;;;15.30;;
69588;SDS011;56792;50.644;17.984;2023-03-01T04:55:15;25.70;;;11.60;;
69588;SDS011;56792;50.644;17.984;2023-03-01T04:57:48;31.50;;;11.80;;
69588;SDS011;56792;50.644;17.984;2023-03-01T05:00:21;33.20;;;13.50;;
69588;SDS011;56792;50.644;17.984;2023-03-01T05:02:55;36.50;;;14.20;;
69588;SDS011;56792;50.644;17.984;2023-03-01T05:05:32;35.10;;;14.30;;
69588;SDS011;56792;50.644;17.984;2023-03-01T05:08:07;35.30;;;14.80;;
69588;SDS011;56792;50.644;17.984;2023-03-01T05:10:47;38.60;;;14.90;;
69588;SDS011;56792;50.644;17.984;2023-03-01T05:13:22;46.60;;;18.60;;
69588;SDS011;56792;50.644;17.984;2023-03-01T05:15:58;40.30;;;17.30;;
69588;SDS011;56792;50.644;17.984;2023-03-01T05:18:32;50.70;;;19.00;;
69588;SDS011;56792;50.644;17.984;2023-03-01T05:21:08;62.50;;;22.70;;
69588;SDS011;56792;50.644;17.984;2023-03-01T05:23:41;64.00;;;24.50;;
69588;SDS011;56792;50.644;17.984;2023-03-01T05:26:15;61.90;;;24.00;;
69588;SDS011;56792;50.644;17.984;2023-03-01T05:28:50;57.20;;;21.10;;
69588;SDS011;56792;50.644;17.984;2023-03-01T05:31:25;57.70;;;20.70;;
69588;SDS011;56792;50.644;17.984;2023-03-01T05:33:59;51.90;;;20.30;;
69588;SDS011;56792;50.644;17.984;2023-03-01T05:36:31;72.60;;;26.20;;
69588;SDS011;56792;50.644;17.984;2023-03-01T05:39:04;74.30;;;28.30;;
69588;SDS011;56792;50.644;17.984;2023-03-01T05:41:36;71.50;;;25.20;;
69588;SDS011;56792;50.644;17.984;2023-03-01T05:44:09;66.20;;;25.10;;
69588;SDS011;56792;50.644;17.984;2023-03-01T05:46:42;69.30;;;23.70;;
69588;SDS011;56792;50.644;17.984;2023-03-01T05:49:14;62.50;;;22.10;;
69588;SDS011;56792;50.644;17.984;2023-03-01T05:51:50;72.00;;;24.20;;
69588;SDS011;56792;50.644;17.984;2023-03-01T05:54:24;52.20;;;19.90;;
69588;SDS011;56792;50.644;17.984;2023-03-01T05:56:56;38.20;;;14.50;;
69588;SDS011;56792;50.644;17.984;2023-03-01T05:59:29;33.00;;;12.90;;
69588;SDS011;56792;50.644;17.984;2023-03-01T06:02:01;32.20;;;11.80;;
69588;SDS011;56792;50.644;17.984;2023-03-01T06:04:33;34.20;;;12.30;;
69588;SDS011;56792;50.644;17.984;2023-03-01T06:07:06;30.30;;;12.00;;
69588;SDS011;56792;50.644;17.984;2023-03-01T06:09:38;28.80;;;13.10;;
69588;SDS011;56792;50.644;17.984;2023-03-01T06:12:10;32.60;;;13.20;;
69588;SDS011;56792;50.644;17.984;2023-03-01T06:14:42;31.30;;;12.80;;
69588;SDS011;56792;50.644;17.984;2023-03-01T06:17:15;32.20;;;12.80;;
69588;SDS011;56792;50.644;17.984;2023-03-01T06:19:47;32.40;;;14.20;;
69588;SDS011;56792;50.644;17.984;2023-03-01T06:22:21;34.60;;;15.10;;
69588;SDS011;56792;50.644;17.984;2023-03-01T06:24:54;32.60;;;14.50;;
69588;SDS011;56792;50.644;17.984;2023-03-01T06:27:27;37.30;;;15.80;;
69588;SDS011;56792;50.644;17.984;2023-03-01T06:29:59;42.90;;;16.60;;
69588;SDS011;56792;50.644;17.984;2023-03-01T06:32:32;40.00;;;16.80;;
69588;SDS011;56792;50.644;17.984;2023-03-01T06:35:05;38.30;;;16.40;;
69588;SDS011;56792;50.644;17.984;2023-03-01T06:37:39;44.10;;;18.00;;
69588;SDS011;56792;50.644;17.984;2023-03-01T06:40:13;45.80;;;17.30;;
69588;SDS011;56792;50.644;17.984;2023-03-01T06:42:49;46.90;;;19.50;;
69588;SDS011;56792;50.644;17.984;2023-03-01T06:45:23;57.60;;;22.40;;
69588;SDS011;56792;50.644;17.984;2023-03-01T06:48:02;47.40;;;18.20;;
69588;SDS011;56792;50.644;17.984;2023-03-01T06:50:36;43.10;;;16.70;;
69588;SDS011;56792;50.644;17.984;2023-03-01T06:53:09;42.40;;;16.70;;
69588;SDS011;56792;50.644;17.984;2023-03-01T06:55:41;35.90;;;15.50;;
69588;SDS011;56792;50.644;17.984;2023-03-01T06:58:14;41.70;;;16.60;;
69588;SDS011;56792;50.644;17.984;2023-03-01T07:00:46;38.10;;;16.70;;
69588;SDS011;56792;50.644;17.984;2023-03-01T07:03:19;41.10;;;17.20;;
69588;SDS011;56792;50.644;17.984;2023-03-01T07:05:52;38.30;;;16.50;;
69588;SDS011;56792;50.644;17.984;2023-03-01T07:08:25;48.70;;;19.70;;
69588;SDS011;56792;50.644;17.984;2023-03-01T07:10:58;41.50;;;18.20;;
69588;SDS011;56792;50.644;17.984;2023-03-01T07:13:33;37.70;;;16.40;;
69588;SDS011;56792;50.644;17.984;2023-03-01T07:16:07;56.40;;;21.50;;
69588;SDS011;56792;50.644;17.984;2023-03-01T07:18:41;56.70;;;23.40;;
69588;SDS011;56792;50.644;17.984;2023-03-01T07:21:14;53.10;;;22.40;;
69588;SDS011;56792;50.644;17.984;2023-03-01T07:23:49;47.20;;;21.20;;
69588;SDS011;56792;50.644;17.984;2023-03-01T07:26:21;51.90;;;21.40;;
69588;SDS011;56792;50.644;17.984;2023-03-01T07:28:54;42.70;;;20.00;;
69588;SDS011;56792;50.644;17.984;2023-03-01T07:31:29;43.10;;;19.90;;
69588;SDS011;56792;50.644;17.984;2023-03-01T07:34:02;39.70;;;18.80;;
69588;SDS011;56792;50.644;17.984;2023-03-01T07:36:35;41.40;;;19.00;;
69588;SDS011;56792;50.644;17.984;2023-03-01T07:39:08;37.80;;;17.90;;
69588;SDS011;56792;50.644;17.984;2023-03-01T07:41:41;39.50;;;18.30;;
69588;SDS011;56792;50.644;17.984;2023-03-01T07:44:14;44.90;;;20.70;;
69588;SDS011;56792;50.644;17.984;2023-03-01T07:46:46;43.10;;;22.10;;
69588;SDS011;56792;50.644;17.984;2023-03-01T07:49:27;52.20;;;25.20;;
69588;SDS011;56792;50.644;17.984;2023-03-01T07:52:05;66.50;;;28.50;;
69588;SDS011;56792;50.644;17.984;2023-03-01T07:54:42;49.70;;;24.20;;
69588;SDS011;56792;50.644;17.984;2023-03-01T07:57:14;57.90;;;24.30;;
69588;SDS011;56792;50.644;17.984;2023-03-01T07:59:46;40.50;;;19.80;;
69588;SDS011;56792;50.644;17.984;2023-03-01T08:02:19;35.70;;;17.80;;
69588;SDS011;56792;50.644;17.984;2023-03-01T08:04:51;32.70;;;16.60;;
69588;SDS011;56792;50.644;17.984;2023-03-01T08:07:24;32.30;;;16.70;;
69588;SDS011;56792;50.644;17.984;2023-03-01T08:09:56;34.20;;;15.90;;
69588;SDS011;56792;50.644;17.984;2023-03-01T08:12:28;33.70;;;17.30;;
69588;SDS011;56792;50.644;17.984;2023-03-01T08:15:01;29.20;;;16.20;;
69588;SDS011;56792;50.644;17.984;2023-03-01T08:17:34;36.00;;;17.60;;
69588;SDS011;56792;50.644;17.984;2023-03-01T08:20:10;37.60;;;18.20;;
69588;SDS011;56792;50.644;17.984;2023-03-01T08:22:43;34.40;;;16.30;;
69588;SDS011;56792;50.644;17.984;2023-03-01T08:25:16;38.90;;;18.60;;
69588;SDS011;56792;50.644;17.984;2023-03-01T08:27:49;34.60;;;18.00;;
69588;SDS011;56792;50.644;17.984;2023-03-01T08:30:21;35.20;;;18.50;;
69588;SDS011;56792;50.644;17.984;2023-03-01T08:32:54;39.90;;;18.90;;
69588;SDS011;56792;50.644;17.984;2023-03-01T08:35:27;37.80;;;19.50;;
69588;SDS011;56792;50.644;17.984;2023-03-01T08:38:00;39.20;;;19.90;;
69588;SDS011;56792;50.644;17.984;2023-03-01T08:40:33;38.20;;;19.20;;
69588;SDS011;56792;50.644;17.984;2023-03-01T08:43:06;38.30;;;20.00;;
69588;SDS011;56792;50.644;17.984;2023-03-01T08:45:38;38.30;;;20.10;;
69588;SDS011;56792;50.644;17.984;2023-03-01T08:48:10;39.30;;;20.20;;
69588;SDS011;56792;50.644;17.984;2023-03-01T08:50:42;38.30;;;19.20;;
69588;SDS011;56792;50.644;17.984;2023-03-01T08:53:15;43.80;;;21.00;;
69588;SDS011;56792;50.644;17.984;2023-03-01T08:55:49;39.50;;;20.20;;
69588;SDS011;56792;50.644;17.984;2023-03-01T08:58:35;39.50;;;20.10;;
69588;SDS011;56792;50.644;17.984;2023-03-01T09:01:13;39.70;;;19.70;;
69588;SDS011;56792;50.644;17.984;2023-03-01T09:03:48;33.90;;;18.40;;
69588;SDS011;56792;50.644;17.984;2023-03-01T09:06:20;34.70;;;19.00;;
69588;SDS011;56792;50.644;17.984;2023-03-01T09:08:53;32.90;;;18.20;;
69588;SDS011;56792;50.644;17.984;2023-03-01T09:11:25;34.20;;;17.70;;
69588;SDS011;56792;50.644;17.984;2023-03-01T09:13:57;23.00;;;13.80;;
69588;SDS011;56792;50.644;17.984;2023-03-01T09:16:30;23.50;;;13.50;;
69588;SDS011;56792;50.644;17.984;2023-03-01T09:19:04;23.30;;;12.70;;
69588;SDS011;56792;50.644;17.984;2023-03-01T09:21:37;18.30;;;10.90;;
69588;SDS011;56792;50.644;17.984;2023-03-01T09:24:14;18.10;;;10.50;;
69588;SDS011;56792;50.644;17.984;2023-03-01T09:26:49;17.90;;;11.90;;
69588;SDS011;56792;50.644;17.984;2023-03-01T09:29:23;19.10;;;10.60;;
69588;SDS011;56792;50.644;17.984;2023-03-01T09:32:01;21.50;;;14.10;;
69588;SDS011;56792;50.644;17.984;2023-03-01T09:34:37;19.00;;;12.00;;
69588;SDS011;56792;50.644;17.984;2023-03-01T09:37:23;17.70;;;12.10;;
69588;SDS011;56792;50.644;17.984;2023-03-01T09:39:56;19.50;;;13.90;;
69588;SDS011;56792;50.644;17.984;2023-03-01T09:42:29;19.30;;;14.20;;
69588;SDS011;56792;50.644;17.984;2023-03-01T09:45:06;18.50;;;14.10;;
69588;SDS011;56792;50.644;17.984;2023-03-01T09:47:50;19.50;;;14.50;;
69588;SDS011;56792;50.644;17.984;2023-03-01T09:50:23;18.50;;;14.80;;
69588;SDS011;56792;50.644;17.984;2023-03-01T09:53:04;18.20;;;14.40;;
69588;SDS011;56792;50.644;17.984;2023-03-01T09:55:43;18.10;;;14.30;;
69588;SDS011;56792;50.644;17.984;2023-03-01T09:58:35;18.50;;;13.90;;
69588;SDS011;56792;50.644;17.984;2023-03-01T10:01:33;17.00;;;13.60;;
69588;SDS011;56792;50.644;17.984;2023-03-01T10:04:26;16.60;;;13.70;;
69588;SDS011;56792;50.644;17.984;2023-03-01T10:07:24;15.40;;;13.30;;
69588;SDS011;56792;50.644;17.984;2023-03-01T10:10:02;15.40;;;13.80;;
69588;SDS011;56792;50.644;17.984;2023-03-01T10:12:41;17.30;;;13.60;;
69588;SDS011;56792;50.644;17.984;2023-03-01T10:15:17;14.70;;;13.10;;
69588;SDS011;56792;50.644;17.984;2023-03-01T10:17:55;15.90;;;11.90;;
69588;SDS011;56792;50.644;17.984;2023-03-01T10:20:42;15.00;;;12.80;;
69588;SDS011;56792;50.644;17.984;2023-03-01T10:23:18;15.50;;;13.70;;
69588;SDS011;56792;50.644;17.984;2023-03-01T10:26:03;17.20;;;14.40;;
69588;SDS011;56792;50.644;17.984;2023-03-01T10:28:50;16.40;;;14.20;;
69588;SDS011;56792;50.644;17.984;2023-03-01T10:31:36;17.40;;;15.60;;
69588;SDS011;56792;50.644;17.984;2023-03-01T10:34:15;19.60;;;17.20;;
69588;SDS011;56792;50.644;17.984;2023-03-01T10:36:51;18.90;;;16.90;;
69588;SDS011;56792;50.644;17.984;2023-03-01T10:39:27;16.90;;;15.00;;
69588;SDS011;56792;50.644;17.984;2023-03-01T10:42:02;16.00;;;14.30;;
69588;SDS011;56792;50.644;17.984;2023-03-01T10:44:42;15.00;;;12.80;;
69588;SDS011;56792;50.644;17.984;2023-03-01T10:47:21;15.90;;;14.20;;
69588;SDS011;56792;50.644;17.984;2023-03-01T10:49:57;16.40;;;14.70;;
69588;SDS011;56792;50.644;17.984;2023-03-01T10:52:34;17.30;;;15.60;;
69588;SDS011;56792;50.644;17.984;2023-03-01T10:55:26;16.90;;;15.20;;
69588;SDS011;56792;50.644;17.984;2023-03-01T10:58:19;18.20;;;16.30;;
69588;SDS011;56792;50.644;17.984;2023-03-01T11:00:53;19.60;;;17.60;;
69588;SDS011;56792;50.644;17.984;2023-03-01T11:03:29;21.10;;;17.90;;
69588;SDS011;56792;50.644;17.984;2023-03-01T11:06:20;19.90;;;17.50;;
69588;SDS011;56792;50.644;17.984;2023-03-01T11:08:53;20.20;;;18.10;;
69588;SDS011;56792;50.644;17.984;2023-03-01T11:11:36;20.00;;;18.00;;
69588;SDS011;56792;50.644;17.984;2023-03-01T11:14:15;19.70;;;17.60;;
69588;SDS011;56792;50.644;17.984;2023-03-01T11:16:58;18.40;;;16.40;;
69588;SDS011;56792;50.644;17.984;2023-03-01T11:19:32;18.20;;;16.40;;
69588;SDS011;56792;50.644;17.984;2023-03-01T11:22:07;18.30;;;16.40;;
69588;SDS011;56792;50.644;17.984;2023-03-01T11:24:43;19.20;;;17.20;;
69588;SDS011;56792;50.644;17.984;2023-03-01T11:27:21;19.70;;;17.50;;
69588;SDS011;56792;50.644;17.984;2023-03-01T11:29:58;19.10;;;17.00;;
69588;SDS011;56792;50.644;17.984;2023-03-01T11:32:38;18.60;;;16.40;;
69588;SDS011;56792;50.644;17.984;2023-03-01T11:35:17;18.00;;;16.10;;
69588;SDS011;56792;50.644;17.984;2023-03-01T11:38:02;18.20;;;16.20;;
69588;SDS011;56792;50.644;17.984;2023-03-01T11:40:52;16.80;;;14.90;;
69588;SDS011;56792;50.644;17.984;2023-03-01T11:43:46;17.00;;;15.20;;
69588;SDS011;56792;50.644;17.984;2023-03-01T11:46:48;18.00;;;16.10;;
69588;SDS011;56792;50.644;17.984;2023-03-01T11:52:52;16.30;;;14.60;;
69588;SDS011;56792;50.644;17.984;2023-03-01T11:55:49;17.40;;;15.60;;
69588;SDS011;56792;50.644;17.984;2023-03-01T11:58:43;19.90;;;17.80;;
69588;SDS011;56792;50.644;17.984;2023-03-01T12:01:34;17.10;;;14.80;;
69588;SDS011;56792;50.644;17.984;2023-03-01T12:04:41;17.40;;;15.60;;
69588;SDS011;56792;50.644;17.984;2023-03-01T12:07:35;17.80;;;15.90;;
69588;SDS011;56792;50.644;17.984;2023-03-01T12:10:27;17.90;;;15.40;;
69588;SDS011;56792;50.644;17.984;2023-03-01T12:13:17;15.70;;;14.20;;
69588;SDS011;56792;50.644;17.984;2023-03-01T12:16:13;15.60;;;13.90;;
69588;SDS011;56792;50.644;17.984;2023-03-01T12:19:07;15.20;;;13.60;;
69588;SDS011;56792;50.644;17.984;2023-03-01T12:22:05;15.60;;;13.70;;
69588;SDS011;56792;50.644;17.984;2023-03-01T12:25:08;15.70;;;14.10;;
69588;SDS011;56792;50.644;17.984;2023-03-01T12:28:09;15.50;;;14.10;;
69588;SDS011;56792;50.644;17.984;2023-03-01T12:31:23;15.20;;;12.60;;
69588;SDS011;56792;50.644;17.984;2023-03-01T12:34:37;13.80;;;12.50;;
69588;SDS011;56792;50.644;17.984;2023-03-01T12:37:31;14.70;;;13.20;;
69588;SDS011;56792;50.644;17.984;2023-03-01T12:43:37;15.00;;;13.40;;
69588;SDS011;56792;50.644;17.984;2023-03-01T12:46:28;15.90;;;14.20;;
69588;SDS011;56792;50.644;17.984;2023-03-01T12:49:17;15.90;;;14.20;;
69588;SDS011;56792;50.644;17.984;2023-03-01T12:51:58;17.30;;;15.40;;
69588;SDS011;56792;50.644;17.984;2023-03-01T12:54:38;16.20;;;14.10;;
69588;SDS011;56792;50.644;17.984;2023-03-01T12:57:17;15.20;;;13.50;;
69588;SDS011;56792;50.644;17.984;2023-03-01T13:00:05;15.20;;;13.60;;
69588;SDS011;56792;50.644;17.984;2023-03-01T13:02:52;16.10;;;14.30;;
69588;SDS011;56792;50.644;17.984;2023-03-01T13:05:39;15.60;;;13.90;;
69588;SDS011;56792;50.644;17.984;2023-03-01T13:08:22;18.00;;;14.50;;
69588;SDS011;56792;50.644;17.984;2023-03-01T13:11:01;17.60;;;15.40;;
69588;SDS011;56792;50.644;17.984;2023-03-01T13:13:35;17.70;;;15.60;;
69588;SDS011;56792;50.644;17.984;2023-03-01T13:16:21;16.80;;;14.60;;
69588;SDS011;56792;50.644;17.984;2023-03-01T13:19:14;16.60;;;14.70;;
69588;SDS011;56792;50.644;17.984;2023-03-01T13:21:49;14.70;;;13.10;;
69588;SDS011;56792;50.644;17.984;2023-03-01T13:24:28;15.40;;;13.10;;
69588;SDS011;56792;50.644;17.984;2023-03-01T13:27:21;13.80;;;11.80;;
69588;SDS011;56792;50.644;17.984;2023-03-01T13:29:59;13.50;;;11.50;;
69588;SDS011;56792;50.644;17.984;2023-03-01T13:32:35;14.10;;;12.40;;
69588;SDS011;56792;50.644;17.984;2023-03-01T13:35:42;14.50;;;12.40;;
69588;SDS011;56792;50.644;17.984;2023-03-01T13:38:54;15.10;;;12.80;;
69588;SDS011;56792;50.644;17.984;2023-03-01T13:41:50;13.40;;;11.70;;
69588;SDS011;56792;50.644;17.984;2023-03-01T13:44:29;14.00;;;11.60;;
69588;SDS011;56792;50.644;17.984;2023-03-01T13:47:15;14.30;;;11.60;;
69588;SDS011;56792;50.644;17.984;2023-03-01T13:49:51;16.60;;;13.10;;
69588;SDS011;56792;50.644;17.984;2023-03-01T13:52:40;14.70;;;12.20;;
69588;SDS011;56792;50.644;17.984;2023-03-01T13:55:21;14.70;;;11.70;;
69588;SDS011;56792;50.644;17.984;2023-03-01T13:57:57;14.00;;;11.00;;
69588;SDS011;56792;50.644;17.984;2023-03-01T14:00:35;13.60;;;10.20;;
69588;SDS011;56792;50.644;17.984;2023-03-01T14:03:14;12.90;;;10.00;;
69588;SDS011;56792;50.644;17.984;2023-03-01T14:06:05;13.70;;;10.70;;
69588;SDS011;56792;50.644;17.984;2023-03-01T14:08:40;14.00;;;11.40;;
69588;SDS011;56792;50.644;17.984;2023-03-01T14:11:34;14.30;;;10.90;;
69588;SDS011;56792;50.644;17.984;2023-03-01T14:14:34;14.50;;;11.00;;
69588;SDS011;56792;50.644;17.984;2023-03-01T14:20:21;18.70;;;13.60;;
69588;SDS011;56792;50.644;17.984;2023-03-01T14:22:59;18.70;;;13.60;;
69588;SDS011;56792;50.644;17.984;2023-03-01T14:25:45;22.00;;;16.30;;
69588;SDS011;56792;50.644;17.984;2023-03-01T14:28:21;19.40;;;12.40;;
69588;SDS011;56792;50.644;17.984;2023-03-01T14:30:59;21.80;;;15.00;;
69588;SDS011;56792;50.644;17.984;2023-03-01T14:33:33;16.30;;;12.40;;
69588;SDS011;56792;50.644;17.984;2023-03-01T14:36:11;15.60;;;12.00;;
69588;SDS011;56792;50.644;17.984;2023-03-01T14:38:45;16.90;;;11.60;;
69588;SDS011;56792;50.644;17.984;2023-03-01T14:41:21;17.20;;;13.80;;
69588;SDS011;56792;50.644;17.984;2023-03-01T14:43:57;15.90;;;11.60;;
69588;SDS011;56792;50.644;17.984;2023-03-01T14:46:33;17.40;;;12.40;;
69588;SDS011;56792;50.644;17.984;2023-03-01T14:49:09;15.70;;;10.70;;
69588;SDS011;56792;50.644;17.984;2023-03-01T14:51:55;19.40;;;12.10;;
69588;SDS011;56792;50.644;17.984;2023-03-01T14:54:39;19.60;;;11.40;;
69588;SDS011;56792;50.644;17.984;2023-03-01T14:57:17;15.50;;;10.80;;
69588;SDS011;56792;50.644;17.984;2023-03-01T14:59:53;15.60;;;10.20;;
69588;SDS011;56792;50.644;17.984;2023-03-01T15:02:30;16.70;;;10.70;;
69588;SDS011;56792;50.644;17.984;2023-03-01T15:05:06;16.70;;;10.50;;
69588;SDS011;56792;50.644;17.984;2023-03-01T15:07:43;16.80;;;9.70;;
69588;SDS011;56792;50.644;17.984;2023-03-01T15:10:21;17.10;;;10.90;;
69588;SDS011;56792;50.644;17.984;2023-03-01T15:13:09;15.50;;;11.30;;
69588;SDS011;56792;50.644;17.984;2023-03-01T15:15:45;16.90;;;11.20;;
69588;SDS011;56792;50.644;17.984;2023-03-01T15:18:22;18.00;;;12.00;;